createdAt,value
2022-10-11T00:00:31.116Z,97475.56
2022-10-11T00:02:58.439Z,97462.81
2022-10-11T00:05:32.001Z,97459.81
2022-10-11T00:08:00.778Z,97466.47
2022-10-11T00:10:29.793Z,97466.28
2022-10-11T00:12:56.716Z,97472.16
2022-10-11T00:15:23.725Z,97463.38
2022-10-11T00:17:50.721Z,97476.19
2022-10-11T00:20:17.881Z,97481.53
2022-10-11T00:22:44.863Z,97471.91
2022-10-11T00:25:16.757Z,97468.66
2022-10-11T00:27:45.880Z,97480.25
2022-10-11T00:30:13.356Z,97475.34
2022-10-11T00:32:42.711Z,97476.81
2022-10-11T00:35:09.925Z,97476.00
2022-10-11T00:37:39.643Z,97481.66
2022-10-11T00:40:12.730Z,97484.88
2022-10-11T00:42:41.324Z,97487.13
2022-10-11T00:45:26.156Z,97482.84
2022-10-11T00:47:55.011Z,97459.13
2022-10-11T00:50:23.944Z,97482.50
2022-10-11T00:52:57.809Z,97488.56
2022-10-11T00:55:26.731Z,97480.47
2022-10-11T00:57:57.128Z,97479.25
2022-10-11T01:00:26.054Z,97476.06
2022-10-11T01:02:54.876Z,97477.25
2022-10-11T01:05:30.277Z,97476.03
2022-10-11T01:08:00.205Z,97476.78
2022-10-11T01:10:32.599Z,97471.59
2022-10-11T01:13:23.298Z,97488.31
2022-10-11T01:16:20.423Z,97481.88
2022-10-11T01:18:56.663Z,97481.78
2022-10-11T01:21:34.134Z,97488.78
2022-10-11T01:24:39.143Z,97480.72
2022-10-11T01:27:05.971Z,97477.63
2022-10-11T01:30:04.333Z,97474.97
2022-10-11T01:32:44.611Z,97483.19
2022-10-11T01:35:21.523Z,97482.09
2022-10-11T01:38:17.433Z,97474.34
2022-10-11T01:40:55.157Z,97484.91
2022-10-11T01:43:25.630Z,97470.72
2022-10-11T01:45:57.295Z,97485.81
2022-10-11T01:48:26.075Z,97480.78
2022-10-11T01:50:57.113Z,97481.25
2022-10-11T01:53:38.196Z,97474.00
2022-10-11T01:56:26.577Z,97472.75
2022-10-11T01:59:08.272Z,97476.59
2022-10-11T02:01:53.430Z,97479.25
2022-10-11T02:04:29.312Z,97476.94
2022-10-11T02:07:02.980Z,97467.38
2022-10-11T02:09:45.789Z,97468.50
2022-10-11T02:12:21.153Z,97477.00
2022-10-11T02:14:52.430Z,97471.91
2022-10-11T02:17:27.814Z,97470.78
2022-10-11T02:20:00.390Z,97464.16
2022-10-11T02:22:32.696Z,97478.13
2022-10-11T02:25:02.430Z,97451.09
2022-10-11T02:27:37.940Z,97469.53
2022-10-11T02:30:10.211Z,97449.16
2022-10-11T02:32:43.495Z,97474.69
2022-10-11T02:35:12.663Z,97480.47
2022-10-11T02:37:53.240Z,97480.91
2022-10-11T02:40:41.575Z,97476.22
2022-10-11T02:43:17.673Z,97471.97
2022-10-11T02:45:50.800Z,97464.03
2022-10-11T02:48:18.814Z,97462.75
2022-10-11T02:50:48.186Z,97463.66
2022-10-11T02:53:15.117Z,97459.09
2022-10-11T02:55:43.935Z,97460.72
2022-10-11T02:58:10.503Z,97459.97
2022-10-11T03:00:39.564Z,97470.28
2022-10-11T03:03:06.110Z,97468.44
2022-10-11T03:05:37.184Z,97473.06
2022-10-11T03:08:03.804Z,97461.91
2022-10-11T03:10:30.406Z,97467.34
2022-10-11T03:12:59.255Z,97466.59
2022-10-11T03:15:25.801Z,97469.31
2022-10-11T03:17:52.433Z,97471.91
2022-10-11T03:20:19.075Z,97449.88
2022-10-11T03:22:45.770Z,97468.59
2022-10-11T03:25:13.013Z,97464.22
2022-10-11T03:27:44.593Z,97468.44
2022-10-11T03:30:18.361Z,97464.97
2022-10-11T03:32:45.095Z,97462.53
2022-10-11T03:35:13.907Z,97458.63
2022-10-11T03:37:40.502Z,97458.28
2022-10-11T03:40:09.906Z,97450.53
2022-10-11T03:42:36.819Z,97464.28
2022-10-11T03:45:08.116Z,97473.44
2022-10-11T03:47:41.583Z,97474.47
2022-10-11T03:50:12.017Z,97466.75
2022-10-11T03:52:38.948Z,97459.41
2022-10-11T03:55:07.275Z,97469.31
2022-10-11T03:57:36.267Z,97463.53
2022-10-11T04:00:02.916Z,97467.28
2022-10-11T04:02:34.697Z,97469.59
2022-10-11T04:05:07.552Z,97458.72
2022-10-11T04:07:34.203Z,97461.16
2022-10-11T04:10:00.779Z,97462.91
2022-10-11T04:12:27.367Z,97453.53
2022-10-11T04:14:56.229Z,97453.16
2022-10-11T04:17:25.556Z,97463.16
2022-10-11T04:19:57.234Z,97458.13
2022-10-11T04:22:28.495Z,97466.78
2022-10-11T04:24:55.238Z,97466.19
2022-10-11T04:27:22.422Z,97477.91
2022-10-11T04:29:48.950Z,97465.56
2022-10-11T04:32:18.100Z,97475.50
2022-10-11T04:34:44.617Z,97462.13
2022-10-11T04:37:11.203Z,97469.28
2022-10-11T04:39:40.184Z,97477.66
2022-10-11T04:42:07.063Z,97476.22
2022-10-11T04:44:35.906Z,97474.09
2022-10-11T04:47:02.427Z,97469.72
2022-10-11T04:49:31.684Z,97476.25
2022-10-11T04:52:03.061Z,97475.47
2022-10-11T04:54:29.622Z,97478.41
2022-10-11T04:56:58.492Z,97487.22
2022-10-11T04:59:27.245Z,97487.56
2022-10-11T05:01:53.851Z,97478.66
2022-10-11T05:04:20.543Z,97489.03
2022-10-11T05:06:49.350Z,97491.34
2022-10-11T05:09:18.423Z,97487.38
2022-10-11T05:11:45.417Z,97485.78
2022-10-11T05:14:12.003Z,97490.03
2022-10-11T05:16:41.146Z,97490.75
2022-10-11T05:19:07.678Z,97494.59
2022-10-11T05:21:34.241Z,97495.41
2022-10-11T05:24:03.033Z,97490.38
2022-10-11T05:26:32.188Z,97492.13
2022-10-11T05:28:58.764Z,97495.13
2022-10-11T05:31:25.339Z,97503.31
2022-10-11T05:33:54.315Z,97503.34
2022-10-11T05:36:25.390Z,97498.31
2022-10-11T05:38:51.967Z,97497.56
2022-10-11T05:41:18.521Z,97505.78
2022-10-11T05:43:49.859Z,97502.94
2022-10-11T05:46:18.859Z,97499.03
2022-10-11T05:48:45.798Z,97499.41
2022-10-11T05:51:12.643Z,97507.13
2022-10-11T05:53:39.447Z,97511.47
2022-10-11T05:56:16.718Z,97502.72
2022-10-11T05:58:48.048Z,97511.09
2022-10-11T06:01:20.291Z,97523.13
2022-10-11T06:03:49.364Z,97523.00
2022-10-11T06:06:16.483Z,97519.63
2022-10-11T06:08:45.829Z,97531.56
2022-10-11T06:11:17.211Z,97539.94
2022-10-11T06:13:44.388Z,97541.69
2022-10-11T06:16:14.494Z,97543.09
2022-10-11T06:18:41.139Z,97528.06
2022-10-11T06:21:09.935Z,97545.75
2022-10-11T06:23:36.561Z,97540.66
2022-10-11T06:26:08.753Z,97545.91
2022-10-11T06:28:38.266Z,97553.22
2022-10-11T06:31:07.569Z,97549.28
2022-10-11T06:33:39.585Z,97551.53
2022-10-11T06:36:12.387Z,97553.81
2022-10-11T06:38:44.892Z,97547.88
2022-10-11T06:41:24.784Z,97554.56
2022-10-11T06:43:54.081Z,97550.56
2022-10-11T06:46:24.987Z,97556.00
2022-10-11T06:48:51.909Z,97552.78
2022-10-11T06:51:23.275Z,97555.28
2022-10-11T06:53:57.872Z,97543.00
2022-10-11T06:56:26.251Z,97553.81
2022-10-11T06:59:01.914Z,97555.66
2022-10-11T07:01:28.582Z,97561.16
2022-10-11T07:03:58.593Z,97554.00
2022-10-11T07:06:29.910Z,97563.09
2022-10-11T07:08:59.196Z,97563.50
2022-10-11T07:11:27.797Z,97572.75
2022-10-11T07:13:58.859Z,97572.25
2022-10-11T07:16:26.854Z,97562.00
2022-10-11T07:19:00.401Z,97560.31
2022-10-11T07:21:29.280Z,97555.81
2022-10-11T07:23:55.805Z,97561.63
2022-10-11T07:26:22.416Z,97562.09
2022-10-11T07:28:51.628Z,97566.19
2022-10-11T07:31:23.884Z,97571.38
2022-10-11T07:33:50.520Z,97568.31
2022-10-11T07:36:17.095Z,97566.47
2022-10-11T07:38:45.044Z,97568.00
2022-10-11T07:41:12.120Z,97575.06
2022-10-11T07:43:39.900Z,97570.53
2022-10-11T07:46:07.683Z,97573.00
2022-10-11T07:48:35.999Z,97570.97
2022-10-11T07:51:06.763Z,97574.56
2022-10-11T07:53:47.472Z,97578.38
2022-10-11T07:56:17.174Z,97575.94
2022-10-11T07:58:52.763Z,97577.09
2022-10-11T08:01:20.576Z,97577.09
2022-10-11T08:03:48.283Z,97576.75
2022-10-11T08:06:17.647Z,97577.00
2022-10-11T08:08:44.508Z,97579.72
2022-10-11T08:11:19.013Z,97577.22
2022-10-11T08:13:45.537Z,97574.50
2022-10-11T08:16:12.785Z,97571.03
2022-10-11T08:18:39.942Z,97573.19
2022-10-11T08:21:08.745Z,97570.28
2022-10-11T08:23:40.068Z,97581.41
2022-10-11T08:26:09.728Z,97586.94
2022-10-11T08:28:37.128Z,97580.59
2022-10-11T08:31:06.332Z,97581.81
2022-10-11T08:33:35.671Z,97575.72
2022-10-11T08:36:06.087Z,97587.53
2022-10-11T08:38:36.432Z,97583.78
2022-10-11T08:41:36.467Z,97587.28
2022-10-11T08:45:09.394Z,97587.81
2022-10-11T08:47:33.725Z,97585.13
2022-10-11T08:50:01.290Z,97584.78
2022-10-11T08:52:37.253Z,97582.72
2022-10-11T08:55:26.585Z,97578.69
2022-10-11T08:57:56.151Z,97581.97
2022-10-11T09:00:27.137Z,97584.59
2022-10-11T09:03:20.159Z,97583.13
2022-10-11T09:05:57.622Z,97583.38
2022-10-11T09:08:58.216Z,97594.00
2022-10-11T09:11:36.269Z,97592.38
2022-10-11T09:14:27.026Z,97582.72
2022-10-11T09:16:59.646Z,97581.28
2022-10-11T09:19:47.013Z,97581.47
2022-10-11T09:22:47.591Z,97584.16
2022-10-11T09:25:26.018Z,97589.94
2022-10-11T09:28:11.855Z,97586.41
2022-10-11T09:30:45.963Z,97592.00
2022-10-11T09:33:21.252Z,97588.56
2022-10-11T09:35:51.225Z,97590.38
2022-10-11T09:38:46.866Z,97592.63
2022-10-11T09:41:57.752Z,97585.50
2022-10-11T09:44:28.896Z,97577.69
2022-10-11T09:46:57.433Z,97581.56
2022-10-11T09:49:45.092Z,97580.97
2022-10-11T09:52:19.028Z,97581.59
2022-10-11T09:54:51.616Z,97578.75
2022-10-11T09:57:28.740Z,97575.72
2022-10-11T10:00:03.682Z,97582.75
2022-10-11T10:02:38.565Z,97570.22
2022-10-11T10:05:11.219Z,97575.31
2022-10-11T10:07:41.040Z,97567.66
2022-10-11T10:10:28.479Z,97566.56
2022-10-11T10:13:01.121Z,97566.28
2022-10-11T10:15:36.518Z,97564.06
2022-10-11T10:18:06.568Z,97576.91
2022-10-11T10:20:38.555Z,97564.47
2022-10-11T10:23:17.895Z,97558.41
2022-10-11T10:25:50.948Z,97569.53
2022-10-11T10:28:27.796Z,97570.78
2022-10-11T10:30:59.202Z,97568.19
2022-10-11T10:33:32.716Z,97560.38
2022-10-11T10:36:38.620Z,97560.38
2022-10-11T10:39:05.167Z,97564.78
2022-10-11T10:41:34.395Z,97556.53
2022-10-11T10:44:03.492Z,97551.63
2022-10-11T10:46:38.366Z,97565.97
2022-10-11T10:49:48.301Z,97555.28
2022-10-11T10:52:07.528Z,97547.22
2022-10-11T10:54:55.390Z,97552.59
2022-10-11T10:58:03.647Z,97552.91
2022-10-11T11:00:44.322Z,97540.53
2022-10-11T11:03:20.486Z,97551.06
2022-10-11T11:05:49.558Z,97547.88
2022-10-11T11:08:34.843Z,97555.03
2022-10-11T11:11:03.626Z,97553.38
2022-10-11T11:13:36.478Z,97548.97
2022-10-11T11:16:36.305Z,97553.38
2022-10-11T11:19:30.735Z,97546.81
2022-10-11T11:21:57.338Z,97541.47
2022-10-11T11:25:20.586Z,97535.22
2022-10-11T11:28:01.035Z,97532.78
2022-10-11T11:30:41.135Z,97525.31
2022-10-11T11:33:07.679Z,97531.25
2022-10-11T11:35:44.071Z,97524.84
2022-10-11T11:38:19.250Z,97531.88
2022-10-11T11:40:55.110Z,97527.56
2022-10-11T11:43:33.289Z,97514.13
2022-10-11T11:46:09.589Z,97506.66
2022-10-11T11:48:37.617Z,97502.84
2022-10-11T11:51:07.523Z,97512.94
2022-10-11T11:53:34.396Z,97511.09
2022-10-11T11:56:31.396Z,97514.13
2022-10-11T11:59:16.504Z,97509.28
2022-10-11T12:02:10.094Z,97499.47
2022-10-11T12:04:41.514Z,97507.72
2022-10-11T12:07:17.634Z,97509.28
2022-10-11T12:09:50.513Z,97507.28
2022-10-11T12:12:34.426Z,97498.25
2022-10-11T12:15:10.029Z,97493.81
2022-10-11T12:17:55.213Z,97495.81
2022-10-11T12:20:31.378Z,97499.63
2022-10-11T12:23:20.142Z,97492.88
2022-10-11T12:26:25.054Z,97493.03
2022-10-11T12:29:29.429Z,97498.69
2022-10-11T12:31:58.838Z,97481.75
2022-10-11T12:34:34.557Z,97489.03
2022-10-11T12:37:23.573Z,97486.75
2022-10-11T12:39:51.757Z,97488.28
2022-10-11T12:42:28.317Z,97485.22
2022-10-11T12:45:13.192Z,97490.59
2022-10-11T12:48:03.043Z,97492.56
2022-10-11T12:50:51.837Z,97490.44
2022-10-11T12:53:39.976Z,97488.59
2022-10-11T12:56:18.408Z,97469.09
2022-10-11T12:58:50.370Z,97488.63
2022-10-11T13:01:27.171Z,97490.16
2022-10-11T13:04:12.655Z,97471.97
2022-10-11T13:06:54.333Z,97489.03
2022-10-11T13:09:26.971Z,97479.88
2022-10-11T13:12:15.848Z,97479.09
2022-10-11T13:15:08.461Z,97485.06
2022-10-11T13:17:38.981Z,97482.00
2022-10-11T13:20:18.169Z,97476.06
2022-10-11T13:22:52.880Z,97480.34
2022-10-11T13:25:26.405Z,97479.09
2022-10-11T13:27:55.013Z,97470.31
2022-10-11T13:30:29.660Z,97472.00
2022-10-11T13:32:59.946Z,97466.50
2022-10-11T13:35:35.398Z,97455.94
2022-10-11T13:38:02.593Z,97458.66
2022-10-11T13:40:31.136Z,97468.09
2022-10-11T13:42:58.480Z,97461.06
2022-10-11T13:45:30.621Z,97455.38
2022-10-11T13:47:57.552Z,97460.88
2022-10-11T13:50:30.746Z,97459.81
2022-10-11T13:52:59.921Z,97464.53
2022-10-11T13:55:38.830Z,97453.00
2022-10-11T13:58:18.873Z,97447.00
2022-10-11T14:01:04.463Z,97450.25
2022-10-11T14:04:03.809Z,97454.69
2022-10-11T14:07:00.885Z,97452.06
2022-10-11T14:09:30.808Z,97455.75
2022-10-11T14:12:25.877Z,97457.59
2022-10-11T14:14:57.677Z,97458.19
2022-10-11T14:17:34.038Z,97457.25
2022-10-11T14:20:17.780Z,97460.97
2022-10-11T14:22:44.615Z,97451.63
2022-10-11T14:25:12.088Z,97452.22
2022-10-11T14:27:42.739Z,97456.97
2022-10-11T14:30:26.110Z,97458.00
2022-10-11T14:32:59.468Z,97456.63
2022-10-11T14:35:31.809Z,97452.22
2022-10-11T14:38:00.940Z,97446.16
2022-10-11T14:40:30.004Z,97453.94
2022-10-11T14:42:57.006Z,97456.22
2022-10-11T14:45:25.949Z,97449.03
2022-10-11T14:47:55.827Z,97452.59
2022-10-11T14:50:34.568Z,97461.13
2022-10-11T14:53:01.320Z,97447.72
2022-10-11T14:55:32.138Z,97451.97
2022-10-11T14:58:00.983Z,97446.97
2022-10-11T15:00:30.800Z,97448.75
2022-10-11T15:02:57.607Z,97450.75
2022-10-11T15:05:31.114Z,97450.94
2022-10-11T15:08:01.778Z,97453.69
2022-10-11T15:10:42.707Z,97433.06
2022-10-11T15:13:09.386Z,97453.34
2022-10-11T15:15:41.100Z,97447.59
2022-10-11T15:18:12.447Z,97457.78
2022-10-11T15:23:09.872Z,97454.75
2022-10-11T15:25:38.558Z,97456.59
2022-10-11T15:28:05.782Z,97449.25
2022-10-11T15:30:41.280Z,97463.59
2022-10-11T15:33:09.132Z,97457.19
2022-10-11T15:35:38.292Z,97451.97
2022-10-11T15:38:04.848Z,97450.63
2022-10-11T15:40:35.433Z,97452.47
2022-10-11T15:43:04.685Z,97453.50
2022-10-11T15:45:31.368Z,97453.81
2022-10-11T15:47:58.279Z,97450.16
2022-10-11T15:50:37.576Z,97459.09
2022-10-11T15:53:05.198Z,97456.19
2022-10-11T15:55:34.225Z,97455.88
2022-10-11T15:58:03.521Z,97455.53
2022-10-11T16:00:32.868Z,97451.34
2022-10-11T16:02:59.930Z,97448.47
2022-10-11T16:05:30.436Z,97449.09
2022-10-11T16:07:59.354Z,97455.44
2022-10-11T16:10:25.886Z,97446.91
2022-10-11T16:12:55.089Z,97463.81
2022-10-11T16:15:21.913Z,97450.34
2022-10-11T16:17:50.840Z,97450.13
2022-10-11T16:20:22.497Z,97467.03
2022-10-11T16:22:55.186Z,97460.50
2022-10-11T16:25:22.187Z,97462.44
2022-10-11T16:27:48.968Z,97458.28
2022-10-11T16:30:17.522Z,97464.59
2022-10-11T16:32:49.275Z,97467.34
2022-10-11T16:35:17.188Z,97467.38
2022-10-11T16:37:44.046Z,97474.97
2022-10-11T16:40:15.853Z,97462.72
2022-10-11T16:42:45.426Z,97465.09
2022-10-11T16:45:15.974Z,97478.00
2022-10-11T16:47:43.612Z,97474.28
2022-10-11T16:50:11.122Z,97474.88
2022-10-11T16:52:38.113Z,97481.56
2022-10-11T16:55:07.420Z,97484.09
2022-10-11T16:57:37.841Z,97496.94
2022-10-11T17:00:09.574Z,97485.88
2022-10-11T17:02:36.787Z,97497.91
2022-10-11T17:05:08.204Z,97494.63
2022-10-11T17:07:37.272Z,97497.84
2022-10-11T17:10:05.496Z,97501.44
2022-10-11T17:12:32.530Z,97497.41
2022-10-11T17:15:02.054Z,97502.66
2022-10-11T17:17:29.704Z,97512.75
2022-10-11T17:19:56.311Z,97503.53
2022-10-11T17:22:22.894Z,97505.97
2022-10-11T17:24:54.043Z,97511.03
2022-10-11T17:27:22.951Z,97515.84
2022-10-11T17:29:54.946Z,97517.91
2022-10-11T17:32:21.466Z,97507.84
2022-10-11T17:34:48.109Z,97519.25
2022-10-11T17:37:19.943Z,97514.94
2022-10-11T17:39:46.671Z,97516.47
2022-10-11T17:42:18.055Z,97525.03
2022-10-11T17:44:44.583Z,97515.03
2022-10-11T17:47:14.725Z,97515.81
2022-10-11T17:49:41.435Z,97515.81
2022-10-11T17:52:08.013Z,97515.69
2022-10-11T17:54:34.537Z,97523.81
2022-10-11T17:57:03.365Z,97515.38
2022-10-11T17:59:31.857Z,97515.50
2022-10-11T18:02:00.660Z,97518.00
2022-10-11T18:04:29.704Z,97520.84
2022-10-11T18:06:56.554Z,97518.00
2022-10-11T18:09:28.045Z,97515.38
2022-10-11T18:11:57.003Z,97527.31
2022-10-11T18:14:26.138Z,97517.78
2022-10-11T18:16:55.773Z,97520.19
2022-10-11T18:19:22.353Z,97510.78
2022-10-11T18:21:50.994Z,97513.94
2022-10-11T18:24:20.013Z,97514.72
2022-10-11T18:26:49.913Z,97509.69
2022-10-11T18:29:16.486Z,97510.00
2022-10-11T18:31:45.771Z,97496.22
2022-10-11T18:34:15.915Z,97512.41
2022-10-11T18:36:42.687Z,97508.38
2022-10-11T18:39:13.070Z,97505.53
2022-10-11T18:41:41.841Z,97514.94
2022-10-11T18:44:09.120Z,97520.16
2022-10-11T18:46:35.973Z,97517.44
2022-10-11T18:49:05.147Z,97517.84
2022-10-11T18:51:37.752Z,97524.78
2022-10-11T18:54:08.580Z,97523.56
2022-10-11T18:56:40.568Z,97510.13
2022-10-11T18:59:08.430Z,97510.97
2022-10-11T19:01:40.825Z,97517.84
2022-10-11T19:04:11.977Z,97511.38
2022-10-11T19:06:45.214Z,97509.53
2022-10-11T19:09:17.887Z,97511.94
2022-10-11T19:11:46.836Z,97520.22
2022-10-11T19:14:15.675Z,97516.81
2022-10-11T19:16:51.428Z,97520.53
2022-10-11T19:19:24.676Z,97510.91
2022-10-11T19:21:54.634Z,97520.03
2022-10-11T19:24:24.113Z,97525.75
2022-10-11T19:26:53.074Z,97520.72
2022-10-11T19:29:26.462Z,97529.47
2022-10-11T19:31:58.427Z,97515.69
2022-10-11T19:34:27.534Z,97516.88
2022-10-11T19:36:56.427Z,97510.84
2022-10-11T19:39:26.573Z,97515.63
2022-10-11T19:41:55.462Z,97527.34
2022-10-11T19:44:22.012Z,97515.72
2022-10-11T19:46:52.683Z,97523.06
2022-10-11T19:49:22.682Z,97522.72
2022-10-11T19:51:52.587Z,97522.06
2022-10-11T19:54:21.927Z,97518.28
2022-10-11T19:56:50.950Z,97520.53
2022-10-11T19:59:20.288Z,97521.78
2022-10-11T20:01:52.843Z,97521.97
2022-10-11T20:04:47.486Z,97527.00
2022-10-11T20:07:08.739Z,97521.75
2022-10-11T20:09:35.291Z,97522.47
2022-10-11T20:12:04.746Z,97518.41
2022-10-11T20:14:33.660Z,97516.09
2022-10-11T20:17:02.816Z,97519.09
2022-10-11T20:19:31.103Z,97514.34
2022-10-11T20:21:58.539Z,97528.81
2022-10-11T20:24:28.883Z,97521.75
2022-10-11T20:26:57.933Z,97526.59
2022-10-11T20:29:25.394Z,97526.59
2022-10-11T20:31:52.089Z,97521.06
2022-10-11T20:34:20.849Z,97524.13
2022-10-11T20:36:49.291Z,97527.78
2022-10-11T20:39:21.217Z,97533.75
2022-10-11T20:41:50.285Z,97529.94
2022-10-11T20:44:21.790Z,97524.13
2022-10-11T20:46:48.527Z,97538.91
2022-10-11T20:49:15.080Z,97524.13
2022-10-11T20:51:44.876Z,97535.31
2022-10-11T20:54:14.019Z,97524.66
2022-10-11T20:56:43.033Z,97533.88
2022-10-11T20:59:14.757Z,97532.75
2022-10-11T21:01:44.769Z,97529.94
2022-10-11T21:04:17.741Z,97531.25
2022-10-11T21:06:46.573Z,97527.41
2022-10-11T21:09:15.647Z,97536.44
2022-10-11T21:11:43.449Z,97532.94
2022-10-11T21:14:10.037Z,97531.06
2022-10-11T21:16:39.599Z,97512.66
2022-10-11T21:19:15.868Z,97521.44
2022-10-11T21:21:52.452Z,97534.22
2022-10-11T21:24:20.202Z,97520.16
2022-10-11T21:26:47.920Z,97519.72
2022-10-11T21:29:14.628Z,97522.78
2022-10-11T21:31:43.924Z,97523.63
2022-10-11T21:34:14.345Z,97520.47
2022-10-11T21:36:41.317Z,97516.56
2022-10-11T21:39:12.543Z,97525.59
2022-10-11T21:41:41.930Z,97532.59
2022-10-11T21:44:08.472Z,97531.91
2022-10-11T21:47:04.750Z,97519.28
2022-10-11T21:49:24.503Z,97517.50
2022-10-11T21:51:51.251Z,97533.00
2022-10-11T21:54:17.822Z,97521.84
2022-10-11T21:56:44.352Z,97533.72
2022-10-11T21:59:13.699Z,97524.94
2022-10-11T22:01:41.212Z,97532.50
2022-10-11T22:04:07.896Z,97518.78
2022-10-11T22:06:35.137Z,97528.16
2022-10-11T22:09:03.728Z,97530.53
2022-10-11T22:11:30.693Z,97532.19
2022-10-11T22:14:00.065Z,97519.16
2022-10-11T22:16:29.141Z,97533.63
2022-10-11T22:18:58.585Z,97535.84
2022-10-11T22:21:25.239Z,97534.81
2022-10-11T22:23:54.650Z,97523.38
2022-10-11T22:26:26.863Z,97535.47
2022-10-11T22:28:58.709Z,97537.03
2022-10-11T22:31:27.464Z,97534.38
2022-10-11T22:33:55.754Z,97516.75
2022-10-11T22:36:24.351Z,97521.34
2022-10-11T22:38:54.184Z,97523.31
2022-10-11T22:41:21.441Z,97521.66
2022-10-11T22:43:47.982Z,97512.13
2022-10-11T22:46:19.352Z,97507.34
2022-10-11T22:48:46.345Z,97499.41
2022-10-11T22:51:15.200Z,97503.94
2022-10-11T22:53:44.241Z,97493.03
2022-10-11T22:56:13.548Z,97509.28
2022-10-11T22:58:40.081Z,97503.94
2022-10-11T23:01:11.536Z,97513.97
2022-10-11T23:03:45.158Z,97514.50
2022-10-11T23:06:11.784Z,97507.59
2022-10-11T23:08:38.386Z,97516.50
2022-10-11T23:11:06.505Z,97521.16
2022-10-11T23:13:35.477Z,97531.88
2022-10-11T23:16:09.337Z,97523.84
2022-10-11T23:18:41.022Z,97533.91
2022-10-11T23:21:08.490Z,97525.81
2022-10-11T23:23:39.711Z,97527.34
2022-10-11T23:26:10.590Z,97525.94
2022-10-11T23:28:37.516Z,97522.84
2022-10-11T23:31:16.557Z,97525.47
2022-10-11T23:33:48.340Z,97518.94
2022-10-11T23:36:24.756Z,97536.56
2022-10-11T23:38:56.324Z,97516.16
2022-10-11T23:41:28.258Z,97524.06
2022-10-11T23:43:55.178Z,97511.75
2022-10-11T23:46:22.003Z,97516.34
2022-10-11T23:48:53.291Z,97507.41
2022-10-11T23:51:22.297Z,97517.13
2022-10-11T23:53:49.011Z,97535.16
2022-10-11T23:56:18.023Z,97524.28
2022-10-11T23:58:47.157Z,97529.44
